메인 페이지
METAR-TAF:

METAR-TAF

공항 :

아바나, 쿠바

호세 마르티 국제공항

위도: 22-59N, 경도: 082-24W, 고도: 59m

현재 날씨관측

예보는 1 시간 0분 전, 07:55시(UTC)에 발표되었습니다.
여러 방향의 바람 2kt
온도 18°C
습도 94%
기압 1019 hPa
시정: 9000m
고도 2500ft 상공 구름 조금
고도 10000ft 상공 구름 많음

METAR: MUHA 210755Z VRB02KT 9000 FEW025 BKN100 18/17 Q1019

시각: 03:55 (08:55 UTC)

예보

예보는 3 시간 55분 전, 05:00시(UTC)에 발표되었습니다.
예보 대상 시간: 21일 06시부터 22일 06시까지 (UTC)
동북동8kt
시정: 9000m
고도 2000ft 상공 구름 보통
일시적
21일 07시부터 21일 12시까지 (UTC)
시정: 5000m
고도 2000ft 상공 구름 많음
소나기
전환 중
21일 14시부터 21일 16시까지 (UTC)
동북동6kt
고도 2000ft 상공 구름 조금

TAF: MUHA 210500Z 2106/2206 06008KT 9000 SCT020 TEMPO 2107/2112 5000 SHRA BKN020 BECMG 2114/2116 07006KT FEW020

4,000개 이상의 공항 관측 자료 및 예보 (METAR 및 TAF 보고).

지도상에서 검색 가능한 기상관측소가 노란 점과 빨간 점으로 표시되어 있습니다.

기상관측소 명을 보려면 표시 위로 마우스를 이동하세요.

날씨 관측과 예보를 보려면 클릭하세요.

지도 변경 : 확대하려면 엑스 표시가 있는 녹색 버튼, 축소하려면 빼기 표시가 있는 녹색 버튼, 다음 페이지의 지도를 보려면 녹색 화살표를 클릭하세요.


METAR-TAF: